Time;durP1;ratioP1;P1;durP2;ratioP2;P2;SDS_P1;SDS_P2;PMS_P1;PMS_P2;Temp;Humidity;BMP_temperature;BMP_pressure;BME280_temperature;BME280_humidity;BME280_pressure;Samples;Min_cycle;Max_cycle;Signal;HPM_P1;HPM_P2
2022/06/03 00:02:10;;;;;;;9.20;5.40;;;20.30;99.90;;;;;;5096042;28;20118;-86
2022/06/03 00:04:44;;;;;;;13.55;5.90;;;20.30;99.90;;;;;;5096989;28;20031;-86
2022/06/03 00:07:28;;;;;;;13.32;5.00;;;20.20;99.90;;;;;;5095897;28;20423;-86
2022/06/03 00:10:19;;;;;;;8.57;5.20;;;20.20;99.90;;;;;;5095908;28;20031;-86
2022/06/03 00:13:12;;;;;;;7.95;4.80;;;20.20;99.90;;;;;;5096401;28;20474;-86
2022/06/03 00:16:07;;;;;;;6.45;4.47;;;20.20;99.90;;;;;;5095553;28;20390;-86
2022/06/03 00:18:48;;;;;;;7.85;4.20;;;20.20;99.90;;;;;;5095519;28;20020;-86
2022/06/03 00:21:42;;;;;;;8.13;4.25;;;20.10;99.90;;;;;;5096703;28;20020;-86
2022/06/03 00:24:26;;;;;;;6.75;4.00;;;20.10;99.90;;;;;;5059828;28;20044;-86
2022/06/03 00:27:07;;;;;;;6.63;4.45;;;20.00;99.90;;;;;;5095462;28;20016;-86
2022/06/03 00:29:44;;;;;;;7.90;4.63;;;20.00;99.90;;;;;;5096652;28;20026;-86
2022/06/03 00:32:18;;;;;;;7.65;4.65;;;19.90;99.90;;;;;;5096616;28;20077;-86
2022/06/03 00:34:56;;;;;;;7.03;4.20;;;19.90;99.90;;;;;;5094989;28;20035;-86
2022/06/03 00:37:58;;;;;;;6.75;4.30;;;19.90;99.90;;;;;;5095376;28;20016;-86
2022/06/03 00:40:38;;;;;;;5.70;4.18;;;19.90;99.90;;;;;;5096374;28;20408;-86
2022/06/03 00:43:47;;;;;;;5.68;4.50;;;19.90;99.90;;;;;;5095367;28;20024;-86
2022/06/03 00:46:31;;;;;;;7.05;4.07;;;19.90;99.90;;;;;;5096220;28;20054;-86
2022/06/03 00:48:59;;;;;;;4.55;4.10;;;19.90;99.90;;;;;;5094995;28;20036;-86
2022/06/03 00:51:39;;;;;;;5.03;3.90;;;19.90;99.90;;;;;;5096085;28;20056;-86
2022/06/03 00:54:07;;;;;;;7.60;4.83;;;19.90;99.90;;;;;;5094575;28;20042;-87
2022/06/03 00:56:57;;;;;;;8.02;5.60;;;19.90;99.90;;;;;;5095138;28;20606;-88
2022/06/03 00:59:29;;;;;;;10.23;6.15;;;19.70;99.90;;;;;;5094988;28;20062;-89
2022/06/03 01:02:04;;;;;;;8.57;5.47;;;19.70;99.90;;;;;;5096111;28;20025;-90
2022/06/03 01:04:46;;;;;;;7.68;6.10;;;19.70;99.90;;;;;;5096027;28;20028;-89
2022/06/03 01:07:33;;;;;;;7.90;5.40;;;19.70;99.90;;;;;;5094816;28;20028;-90
2022/06/03 01:10:10;;;;;;;7.88;5.35;;;19.70;99.90;;;;;;5094902;28;20468;-91
2022/06/03 01:13:12;;;;;;;9.73;6.35;;;19.80;99.90;;;;;;5097035;28;20115;-89
2022/06/03 01:16:31;;;;;;;7.13;5.90;;;19.70;99.90;;;;;;5094512;28;20048;-88
2022/06/03 01:19:25;;;;;;;11.35;6.50;;;19.70;99.90;;;;;;5034157;28;20088;-90
2022/06/03 01:22:15;;;;;;;7.68;5.68;;;19.60;99.90;;;;;;5017425;28;20040;-88
2022/06/03 01:24:46;;;;;;;14.05;6.00;;;19.50;99.90;;;;;;5078991;28;20129;-90
2022/06/03 01:27:32;;;;;;;9.38;5.60;;;19.50;99.90;;;;;;5095575;28;20028;-90
2022/06/03 01:29:58;;;;;;;6.55;5.93;;;19.50;99.90;;;;;;5094373;28;20070;-89
2022/06/03 01:32:55;;;;;;;11.30;6.63;;;19.40;99.90;;;;;;5094449;28;20024;-90
2022/06/03 01:35:45;;;;;;;14.02;6.72;;;19.40;99.90;;;;;;5094355;28;20031;-91
2022/06/03 01:38:14;;;;;;;316.17;23.05;;;19.40;99.90;;;;;;5094343;28;20027;-92
2022/06/03 01:40:51;;;;;;;85.03;14.60;;;19.20;99.90;;;;;;5094257;28;20028;-93
2022/06/03 01:43:41;;;;;;;129.90;17.55;;;18.50;99.90;;;;;;5094138;28;20039;-92
2022/06/03 01:46:34;;;;;;;44.65;15.02;;;18.30;99.90;;;;;;5096178;28;20031;-95
2022/06/03 01:49:37;;;;;;;33.28;15.38;;;18.70;99.90;;;;;;5094944;28;20113;-93
2022/06/03 01:52:24;;;;;;;61.40;17.33;;;18.50;99.90;;;;;;5094162;28;20515;-93
2022/06/03 01:55:19;;;;;;;32.65;17.27;;;18.30;99.90;;;;;;5093906;28;20020;-91
2022/06/03 01:58:09;;;;;;;26.73;16.77;;;18.20;99.90;;;;;;5080963;28;20028;-91
2022/06/03 02:00:38;;;;;;;26.42;16.17;;;17.00;99.90;;;;;;5094258;28;20028;-89
2022/06/03 02:03:31;;;;;;;35.65;18.38;;;18.10;99.90;;;;;;5093831;28;20028;-89
2022/06/03 02:06:22;;;;;;;33.42;19.33;;;18.00;99.90;;;;;;5071092;28;20040;-88
2022/06/03 02:08:47;;;;;;;34.25;18.65;;;16.70;99.90;;;;;;5093884;28;20095;-88
2022/06/03 02:11:38;;;;;;;39.35;21.50;;;17.10;99.90;;;;;;5093601;28;20066;-88
2022/06/03 02:14:34;;;;;;;39.45;19.00;;;17.70;99.90;;;;;;5093658;28;20028;-87
2022/06/03 02:17:15;;;;;;;35.67;20.58;;;17.80;99.90;;;;;;5093670;28;20024;-87
2022/06/03 02:20:00;;;;;;;36.10;19.95;;;17.30;99.90;;;;;;5094797;28;20101;-87
2022/06/03 02:22:34;;;;;;;39.55;22.60;;;17.80;99.90;;;;;;5094625;28;20044;-87
2022/06/03 02:25:09;;;;;;;43.88;23.58;;;16.90;99.90;;;;;;5093733;28;20063;-86
2022/06/03 02:28:09;;;;;;;39.13;22.50;;;17.90;99.90;;;;;;5093358;28;20025;-87
2022/06/03 02:30:43;;;;;;;39.73;22.70;;;17.80;99.90;;;;;;5094669;28;20024;-86
2022/06/03 02:33:53;;;;;;;40.05;23.85;;;17.60;99.90;;;;;;5094511;28;20069;-86
2022/06/03 02:36:56;;;;;;;93.80;27.10;;;16.90;99.90;;;;;;5073171;28;20040;-88
2022/06/03 02:39:40;;;;;;;84.60;28.92;;;17.50;99.90;;;;;;5094586;28;20020;-88
2022/06/03 02:42:25;;;;;;;248.13;40.40;;;17.80;99.90;;;;;;5093507;28;20023;-91
2022/06/03 02:45:21;;;;;;;213.07;39.05;;;17.70;99.90;;;;;;5093354;28;20032;-92
2022/06/03 02:48:08;;;;;;;75.55;35.05;;;16.40;99.90;;;;;;5093674;28;20479;-92
2022/06/03 02:50:46;;;;;;;84.90;39.38;;;16.70;99.90;;;;;;5094209;28;20024;-96
2022/06/03 02:53:36;;;;;;;86.57;40.42;;;16.70;99.90;;;;;;5093609;28;20477;-93
2022/06/03 02:56:21;;;;;;;78.07;37.22;;;17.30;99.90;;;;;;5093563;28;20107;-93
2022/06/03 02:59:18;;;;;;;83.07;39.40;;;17.70;99.90;;;;;;5093153;28;20090;-93
2022/06/03 03:02:09;;;;;;;53.70;30.20;;;17.60;99.90;;;;;;5093237;28;20024;-93
2022/06/03 03:04:49;;;;;;;43.42;27.25;;;16.60;99.90;;;;;;5093908;28;20028;-94
2022/06/03 03:07:40;;;;;;;53.70;30.17;;;17.30;99.90;;;;;;5093607;28;20061;-93
2022/06/03 03:10:10;;;;;;;69.63;35.95;;;17.70;99.90;;;;;;5093332;28;20031;-93
2022/06/03 03:13:10;;;;;;;84.97;36.88;;;17.70;99.90;;;;;;5093460;28;20470;-93
2022/06/03 03:15:42;;;;;;;74.60;34.95;;;17.90;99.90;;;;;;5093107;28;20028;-91
2022/06/03 03:18:38;;;;;;;59.13;30.58;;;17.60;99.90;;;;;;5094127;28;20024;-93
2022/06/03 03:21:32;;;;;;;48.67;25.67;;;16.70;99.90;;;;;;5095761;28;20095;-94
2022/06/03 03:24:22;;;;;;;55.30;28.52;;;17.40;99.90;;;;;;5094043;28;20082;-94
2022/06/03 03:27:14;;;;;;;62.55;30.20;;;17.10;99.90;;;;;;5093044;28;20032;-93
2022/06/03 03:30:06;;;;;;;65.40;29.45;;;17.90;99.90;;;;;;5096286;28;20051;-96
2022/06/03 03:33:02;;;;;;;57.22;28.40;;;17.70;99.90;;;;;;5094769;28;20060;-94
2022/06/03 03:35:53;;;;;;;59.60;27.70;;;16.90;99.90;;;;;;5094143;28;20483;-94
2022/06/03 03:38:37;;;;;;;63.75;32.17;;;17.60;99.90;;;;;;5094891;28;20020;-94
2022/06/03 03:41:18;;;;;;;68.03;30.73;;;16.90;99.90;;;;;;5093973;28;20378;-96
2022/06/03 03:44:15;;;;;;;62.17;30.98;;;17.90;99.90;;;;;;5094736;28;20020;-96
2022/06/03 03:47:09;;;;;;;66.53;31.08;;;16.80;99.90;;;;;;5096188;28;20032;-96
2022/06/03 03:49:57;;;;;;;60.38;30.45;;;17.70;99.90;;;;;;5097709;28;20493;-95
2022/06/03 03:52:41;;;;;;;72.60;35.13;;;16.70;99.90;;;;;;5098408;28;20474;-94
2022/06/03 03:55:25;;;;;;;69.55;32.58;;;16.70;99.90;;;;;;5097417;28;20043;-94
2022/06/03 03:58:20;;;;;;;69.80;33.45;;;17.60;99.90;;;;;;5096951;28;20374;-93
2022/06/03 04:01:19;;;;;;;65.57;32.20;;;17.20;99.90;;;;;;5096241;28;20020;-93
2022/06/03 04:04:00;;;;;;;64.95;31.85;;;17.10;99.90;;;;;;5096035;28;20035;-91
2022/06/03 04:06:47;;;;;;;62.53;32.17;;;17.50;99.90;;;;;;5096056;28;20056;-91
2022/06/03 04:09:40;;;;;;;63.88;31.85;;;17.10;99.90;;;;;;5096467;28;20063;-90
2022/06/03 04:12:06;;;;;;;54.15;29.05;;;17.70;99.90;;;;;;5095838;28;20077;-90
2022/06/03 04:14:48;;;;;;;47.53;26.58;;;17.80;99.90;;;;;;5095682;28;20028;-89
2022/06/03 04:17:54;;;;;;;59.70;28.63;;;17.20;99.90;;;;;;5095832;28;20020;-89
2022/06/03 04:21:04;;;;;;;46.05;25.80;;;17.70;99.90;;;;;;5065325;28;20028;-89
2022/06/03 04:23:51;;;;;;;;;;;17.70;99.90;;;;;;5095961;28;20052;-87
2022/06/03 04:26:48;;;;;;;34.65;20.15;;;17.60;99.90;;;;;;5095878;28;20366;-88
2022/06/03 04:29:39;;;;;;;41.45;22.95;;;16.80;99.90;;;;;;5095458;28;20470;-88
2022/06/03 04:32:04;;;;;;;42.08;23.50;;;16.80;99.90;;;;;;5095597;28;20024;-88
2022/06/03 04:34:48;;;;;;;44.50;23.88;;;17.20;99.90;;;;;;5095771;28;20115;-87
2022/06/03 04:37:35;;;;;;;36.78;21.45;;;17.00;99.90;;;;;;5095471;28;20092;-88
2022/06/03 04:40:16;;;;;;;38.95;21.83;;;16.60;99.90;;;;;;5095344;28;20027;-87
2022/06/03 04:43:28;;;;;;;42.67;23.20;;;17.20;99.90;;;;;;5095292;28;20058;-87
2022/06/03 04:46:25;;;;;;;39.15;22.75;;;17.20;99.90;;;;;;5096419;28;20103;-87
2022/06/03 04:49:28;;;;;;;38.70;21.98;;;17.10;99.90;;;;;;5095432;28;20020;-87
2022/06/03 04:52:17;;;;;;;41.13;23.25;;;17.10;99.90;;;;;;5095023;28;20058;-87
2022/06/03 04:55:07;;;;;;;45.50;24.65;;;16.70;99.90;;;;;;5066878;28;20522;-87
2022/06/03 04:57:48;;;;;;;;;;;17.20;99.90;;;;;;5095370;28;20074;-87
2022/06/03 05:00:20;;;;;;;47.33;25.17;;;16.70;99.90;;;;;;5095268;28;19957;-87
2022/06/03 05:03:12;;;;;;;45.13;24.98;;;16.90;99.90;;;;;;5095034;28;20415;-87
2022/06/03 05:05:59;;;;;;;43.28;26.20;;;16.90;99.90;;;;;;5094010;28;20557;-86
2022/06/03 05:08:49;;;;;;;38.67;24.48;;;17.20;99.90;;;;;;5094701;28;20123;-86
2022/06/03 05:11:33;;;;;;;38.60;24.20;;;17.10;99.90;;;;;;5094762;28;20498;-86
2022/06/03 05:14:20;;;;;;;41.50;26.13;;;17.10;99.90;;;;;;5094667;28;20039;-86
2022/06/03 05:17:23;;;;;;;49.88;28.92;;;16.60;99.90;;;;;;5094807;28;20119;-87
2022/06/03 05:20:29;;;;;;;53.13;30.35;;;16.50;99.90;;;;;;5094552;28;20111;-86
2022/06/03 05:22:58;;;;;;;63.80;32.60;;;16.50;99.90;;;;;;5094377;28;20097;-86
2022/06/03 05:25:52;;;;;;;49.50;31.48;;;16.50;99.90;;;;;;5095101;28;20054;-86
2022/06/03 05:28:39;;;;;;;56.03;32.55;;;16.40;99.90;;;;;;5095432;28;20573;-86
2022/06/03 05:31:24;;;;;;;63.15;35.20;;;16.70;99.90;;;;;;5094388;28;20441;-86
2022/06/03 05:34:23;;;;;;;63.33;36.05;;;16.70;99.90;;;;;;5094249;28;20474;-86
2022/06/03 05:37:26;;;;;;;61.10;35.95;;;16.40;99.90;;;;;;5094339;28;20032;-86
2022/06/03 05:40:07;;;;;;;69.88;38.08;;;17.00;99.90;;;;;;5095332;28;20020;-86
2022/06/03 05:42:42;;;;;;;59.40;36.92;;;16.50;99.90;;;;;;5094195;28;20024;-86
2022/06/03 05:45:35;;;;;;;75.68;41.10;;;16.30;99.90;;;;;;5095180;28;20424;-86
2022/06/03 05:48:20;;;;;;;66.82;40.22;;;16.40;99.90;;;;;;5094062;28;20024;-86
2022/06/03 05:50:52;;;;;;;64.70;39.78;;;16.60;99.90;;;;;;5093849;28;20032;-86
2022/06/03 05:53:44;;;;;;;80.75;41.65;;;16.80;99.90;;;;;;5093556;28;20023;-86
2022/06/03 05:56:35;;;;;;;70.00;41.78;;;16.70;99.90;;;;;;5093832;28;20024;-86
2022/06/03 05:59:19;;;;;;;69.35;38.90;;;16.70;99.90;;;;;;5093918;28;20069;-86
2022/06/03 06:01:50;;;;;;;68.68;39.58;;;16.50;99.90;;;;;;5093880;28;20458;-85
2022/06/03 06:04:41;;;;;;;60.25;36.25;;;16.80;99.90;;;;;;5094947;28;20099;-86
2022/06/03 06:07:24;;;;;;;70.88;39.53;;;16.80;99.90;;;;;;5093701;28;20028;-85
2022/06/03 06:09:59;;;;;;;59.92;36.20;;;16.60;99.90;;;;;;5094530;28;20050;-85
2022/06/03 06:12:41;;;;;;;65.13;38.65;;;16.70;99.90;;;;;;5093521;28;20363;-85
2022/06/03 06:15:15;;;;;;;60.72;36.92;;;16.80;99.90;;;;;;5094595;28;20026;-85
2022/06/03 06:17:47;;;;;;;48.80;33.78;;;16.90;99.90;;;;;;5093479;28;20035;-85
2022/06/03 06:20:35;;;;;;;55.25;34.35;;;17.20;99.90;;;;;;5093541;28;20046;-85
2022/06/03 06:23:36;;;;;;;52.50;35.15;;;17.10;99.90;;;;;;5093044;28;20055;-85
2022/06/03 06:26:32;;;;;;;59.05;36.85;;;17.30;99.90;;;;;;5093328;28;20028;-85
2022/06/03 06:29:13;;;;;;;58.50;36.10;;;17.20;99.90;;;;;;5093509;28;20021;-85
2022/06/03 06:31:54;;;;;;;53.88;35.45;;;17.40;99.90;;;;;;5094464;28;20024;-86
2022/06/03 06:34:39;;;;;;;45.05;31.58;;;17.40;99.90;;;;;;5093164;28;20016;-84
2022/06/03 06:37:23;;;;;;;50.38;33.65;;;17.50;99.90;;;;;;5093363;28;20421;-85
2022/06/03 06:40:13;;;;;;;52.85;34.03;;;17.70;99.90;;;;;;5093225;28;20020;-85
2022/06/03 06:42:47;;;;;;;47.20;32.03;;;17.40;99.90;;;;;;5093091;28;20386;-85
2022/06/03 06:45:23;;;;;;;41.03;29.10;;;17.60;99.90;;;;;;5094247;28;20039;-84
2022/06/03 06:48:15;;;;;;;42.92;31.15;;;17.40;99.90;;;;;;5093193;28;20028;-84
2022/06/03 06:50:51;;;;;;;42.20;29.95;;;17.30;99.90;;;;;;5091079;28;20033;-85
2022/06/03 06:53:40;;;;;;;48.65;31.40;;;17.20;99.90;;;;;;5092929;28;20028;-85
2022/06/03 06:56:24;;;;;;;43.80;31.55;;;17.10;99.90;;;;;;5093271;28;20078;-85
2022/06/03 06:59:15;;;;;;;41.58;29.58;;;17.30;99.90;;;;;;5094386;28;20027;-86
2022/06/03 07:01:46;;;;;;;37.80;28.67;;;17.50;99.90;;;;;;5094335;28;20090;-86
2022/06/03 07:04:21;;;;;;;39.58;27.27;;;17.40;99.90;;;;;;5092831;28;20394;-85
2022/06/03 07:07:08;;;;;;;42.33;30.20;;;17.30;99.90;;;;;;5093067;28;20028;-86
2022/06/03 07:09:40;;;;;;;39.60;29.30;;;17.30;99.90;;;;;;5088752;28;20024;-85
2022/06/03 07:12:25;;;;;;;36.15;27.55;;;17.60;99.90;;;;;;5092896;28;20074;-86
2022/06/03 07:15:20;;;;;;;33.55;26.70;;;17.70;99.90;;;;;;5092943;28;20417;-85
2022/06/03 07:21:07;;;;;;;39.50;29.25;;;17.80;99.90;;;;;;5094127;28;20092;-85
2022/06/03 07:23:49;;;;;;;41.08;29.02;;;17.70;99.90;;;;;;5096334;28;20047;-85
2022/06/03 07:26:32;;;;;;;38.33;27.70;;;17.80;99.90;;;;;;5096680;28;20405;-85
2022/06/03 07:29:19;;;;;;;29.33;23.65;;;18.10;99.90;;;;;;5096305;28;20474;-86
2022/06/03 07:32:00;;;;;;;28.38;23.98;;;17.90;99.90;;;;;;5096876;28;20059;-86
2022/06/03 07:34:32;;;;;;;28.48;23.70;;;17.90;99.90;;;;;;5096317;28;20056;-85
2022/06/03 07:37:11;;;;;;;23.42;20.50;;;17.60;99.90;;;;;;5097599;28;20055;-85
2022/06/03 07:40:03;;;;;;;32.28;24.58;;;17.50;99.90;;;;;;5096145;28;20074;-85
2022/06/03 07:43:07;;;;;;;23.65;20.80;;;17.50;99.90;;;;;;5096411;28;20055;-85
2022/06/03 07:45:36;;;;;;;26.35;22.00;;;17.60;99.90;;;;;;5096292;28;20032;-85
2022/06/03 07:48:11;;;;;;;24.30;20.55;;;17.80;99.90;;;;;;5097345;28;20016;-85
2022/06/03 07:50:45;;;;;;;27.35;20.63;;;17.50;99.90;;;;;;5097399;28;20032;-86
2022/06/03 07:53:42;;;;;;;26.17;20.58;;;17.30;99.90;;;;;;5096126;28;20466;-85
2022/06/03 07:56:09;;;;;;;26.70;21.02;;;17.40;99.90;;;;;;5088046;28;20035;-86
2022/06/03 07:58:37;;;;;;;21.80;19.48;;;17.30;99.90;;;;;;5096099;28;20016;-86
2022/06/03 08:01:05;;;;;;;26.95;21.95;;;17.30;99.90;;;;;;5097278;28;20024;-86
2022/06/03 08:03:37;;;;;;;27.13;21.65;;;17.20;99.90;;;;;;5095969;28;20077;-86
2022/06/03 08:06:06;;;;;;;24.02;20.15;;;17.30;99.90;;;;;;5095965;28;20074;-86
2022/06/03 08:11:30;;;;;;;27.13;21.20;;;17.70;99.90;;;;;;5097442;28;20085;-86
2022/06/03 08:13:58;;;;;;;20.15;18.02;;;17.80;99.90;;;;;;5095821;28;20470;-86
2022/06/03 08:16:34;;;;;;;27.90;21.48;;;17.80;99.90;;;;;;5096861;28;20020;-86
2022/06/03 08:19:02;;;;;;;19.85;17.70;;;18.00;99.90;;;;;;5095546;28;20112;-86
2022/06/03 08:21:56;;;;;;;19.48;17.50;;;18.00;99.90;;;;;;5096726;28;20023;-86
2022/06/03 08:24:25;;;;;;;23.33;18.80;;;18.10;99.90;;;;;;5095572;28;20066;-86
2022/06/03 08:26:55;;;;;;;20.70;16.95;;;18.20;99.90;;;;;;5096654;28;20024;-86
2022/06/03 08:29:33;;;;;;;21.92;18.70;;;18.20;99.90;;;;;;5095542;28;20035;-86
2022/06/03 08:32:00;;;;;;;19.83;17.83;;;18.40;99.90;;;;;;5095415;28;20478;-86
2022/06/03 08:34:42;;;;;;;18.55;16.58;;;18.30;99.90;;;;;;5094786;28;20050;-86
2022/06/03 08:37:09;;;;;;;19.20;16.83;;;18.40;99.90;;;;;;5095418;28;20020;-86
2022/06/03 08:39:38;;;;;;;22.92;19.20;;;18.70;99.90;;;;;;5096489;28;20405;-86
2022/06/03 08:42:36;;;;;;;15.73;14.18;;;19.00;99.90;;;;;;5095309;28;20421;-86
2022/06/03 08:45:54;;;;;;;19.13;14.60;;;18.80;99.90;;;;;;5095344;28;20431;-86
2022/06/03 08:48:23;;;;;;;20.50;16.60;;;18.90;99.90;;;;;;5034055;28;20099;-86
2022/06/03 08:50:57;;;;;;;19.75;17.75;;;19.20;99.90;;;;;;5017763;28;20060;-86
2022/06/03 08:53:36;;;;;;;17.20;15.48;;;19.50;99.90;;;;;;5058124;28;20065;-86
2022/06/03 08:56:19;;;;;;;20.30;15.75;;;19.70;99.90;;;;;;5094827;28;20016;-87
2022/06/03 08:58:44;;;;;;;20.55;17.30;;;19.70;99.90;;;;;;5094891;28;20110;-86
2022/06/03 09:01:15;;;;;;;16.55;14.52;;;19.90;99.90;;;;;;5094899;28;20501;-87
2022/06/03 09:03:56;;;;;;;15.40;13.80;;;19.70;99.90;;;;;;5094774;28;20024;-86
2022/06/03 09:06:38;;;;;;;14.60;12.57;;;19.50;99.90;;;;;;5095719;28;20024;-87
2022/06/03 09:09:22;;;;;;;15.70;13.48;;;19.40;99.90;;;;;;5094980;28;20074;-86
2022/06/03 09:11:53;;;;;;;17.58;12.63;;;19.60;99.90;;;;;;5094688;28;20493;-86
2022/06/03 09:14:23;;;;;;;12.88;11.60;;;19.90;99.90;;;;;;5094442;28;20043;-87
2022/06/03 09:16:52;;;;;;;13.45;12.05;;;20.00;99.90;;;;;;5094594;28;20461;-86
2022/06/03 09:19:38;;;;;;;12.50;11.25;;;19.90;99.90;;;;;;5094441;28;20028;-86
2022/06/03 09:22:11;;;;;;;14.38;12.30;;;19.80;99.90;;;;;;5094475;28;20060;-86
2022/06/03 09:24:40;;;;;;;15.18;11.52;;;19.40;99.90;;;;;;5095431;28;20028;-86
2022/06/03 09:27:06;;;;;;;13.77;10.85;;;19.40;99.90;;;;;;5095398;28;20026;-86
2022/06/03 09:29:33;;;;;;;13.15;10.40;;;19.10;99.90;;;;;;5095619;28;20016;-86
2022/06/03 09:32:02;;;;;;;13.75;11.32;;;18.80;99.90;;;;;;5094266;28;20095;-86
2022/06/03 09:34:50;;;;;;;12.60;11.38;;;18.80;99.90;;;;;;5094131;28;20024;-87
2022/06/03 09:37:20;;;;;;;13.30;11.98;;;18.90;99.90;;;;;;5094356;28;20032;-86
2022/06/03 09:39:49;;;;;;;17.45;11.60;;;19.00;99.90;;;;;;5095264;28;20424;-86
2022/06/03 09:42:18;;;;;;;12.40;11.13;;;19.00;99.90;;;;;;5094182;28;20016;-87
2022/06/03 09:44:47;;;;;;;13.15;11.95;;;19.00;99.90;;;;;;5093376;28;20031;-87
2022/06/03 09:47:16;;;;;;;13.07;11.77;;;18.90;99.90;;;;;;5094121;28;20024;-86
2022/06/03 09:49:45;;;;;;;12.70;11.50;;;19.00;99.90;;;;;;5094060;28;20028;-87
2022/06/03 09:52:14;;;;;;;12.02;10.65;;;19.20;99.90;;;;;;5095098;28;20024;-86
2022/06/03 09:54:43;;;;;;;14.82;11.60;;;19.10;99.90;;;;;;5093780;28;20474;-86
2022/06/03 09:57:43;;;;;;;10.55;9.55;;;19.20;99.90;;;;;;5093713;28;20122;-86
2022/06/03 10:00:22;;;;;;;12.10;10.77;;;19.20;99.90;;;;;;5050909;28;20051;-86
2022/06/03 10:02:49;;;;;;;12.50;10.70;;;19.20;99.90;;;;;;5092626;28;20381;-86
2022/06/03 10:05:17;;;;;;;11.98;10.52;;;19.30;99.90;;;;;;5094511;28;20377;-90
2022/06/03 10:07:44;;;;;;;10.10;9.10;;;19.40;99.90;;;;;;5094564;28;20057;-90
2022/06/03 10:13:00;;;;;;;11.82;9.55;;;19.50;99.90;;;;;;5094013;28;20536;-88
2022/06/03 10:15:39;;;;;;;13.82;9.65;;;19.60;99.90;;;;;;5093171;28;20084;-88
2022/06/03 10:18:05;;;;;;;10.57;9.55;;;19.70;99.90;;;;;;5092208;28;20024;-88
2022/06/03 10:20:33;;;;;;;9.43;8.43;;;19.80;99.90;;;;;;5092900;28;20027;-88
2022/06/03 10:23:01;;;;;;;9.82;8.93;;;19.80;99.90;;;;;;5090744;28;20076;-87
2022/06/03 10:25:27;;;;;;;9.80;8.48;;;19.90;99.90;;;;;;5090823;28;20036;-88
2022/06/03 10:27:53;;;;;;;8.60;7.65;;;19.90;99.90;;;;;;5092801;28;20122;-88
2022/06/03 10:30:30;;;;;;;10.80;7.40;;;19.80;99.90;;;;;;5093368;28;20538;-88
2022/06/03 10:32:56;;;;;;;8.35;7.55;;;19.80;99.90;;;;;;5092449;28;20024;-88
2022/06/03 10:35:27;;;;;;;8.73;6.78;;;19.80;99.90;;;;;;5093008;28;20027;-88
2022/06/03 10:38:01;;;;;;;10.13;6.95;;;19.90;99.90;;;;;;5092563;28;20025;-86
2022/06/03 10:40:28;;;;;;;7.75;7.05;;;20.00;99.90;;;;;;5094014;28;20400;-86
2022/06/03 10:42:55;;;;;;;8.13;6.57;;;20.10;99.90;;;;;;5092251;28;20028;-87
2022/06/03 10:45:27;;;;;;;7.53;6.82;;;20.00;99.90;;;;;;5092687;28;20016;-88
2022/06/03 10:47:52;;;;;;;6.68;6.00;;;20.20;99.90;;;;;;5092170;28;20023;-87
2022/06/03 10:50:33;;;;;;;6.82;6.22;;;20.40;99.90;;;;;;5092814;28;20020;-87
2022/06/03 11:01:54;;;;;;;6.38;5.80;;;20.40;99.90;;;;;;5097704;28;20027;-87
2022/06/03 11:04:27;;;;;;;5.88;5.28;;;20.50;99.90;;;;;;5096623;28;20081;-89
2022/06/03 11:06:54;;;;;;;8.40;5.95;;;20.50;99.90;;;;;;5096822;28;20042;-90
2022/06/03 11:09:22;;;;;;;6.05;5.38;;;20.60;99.90;;;;;;5097640;28;20024;-88
2022/06/03 11:11:52;;;;;;;5.78;5.13;;;20.60;99.90;;;;;;5096421;28;20372;-88
2022/06/03 11:14:25;;;;;;;6.03;5.13;;;20.70;99.90;;;;;;5096145;28;20412;-89
2022/06/03 18:04:58;;;;;;;2.35;2.15;;;21.10;66.80;;;;;;5072451;28;20415;-92
2022/06/03 18:07:54;;;;;;;9.57;6.40;;;20.80;67.30;;;;;;5073489;28;20039;-92
2022/06/03 18:10:41;;;;;;;11.65;8.10;;;20.70;67.70;;;;;;5071172;28;20028;-90
2022/06/03 18:13:51;;;;;;;18.67;16.30;;;20.70;67.80;;;;;;5075872;28;20086;-93
2022/06/03 18:16:43;;;;;;;;;;;20.60;69.10;;;;;;5035301;28;20124;-90
2022/06/03 18:19:24;;;;;;;7.18;5.20;;;20.60;68.50;;;;;;5068951;28;19912;-91
2022/06/03 18:22:05;;;;;;;4.32;3.30;;;20.60;68.90;;;;;;5054725;28;20185;-91
2022/06/03 18:24:54;;;;;;;27.02;18.83;;;20.60;69.00;;;;;;5071678;28;20119;-92
2022/06/03 18:27:51;;;;;;;2.60;2.40;;;20.60;69.30;;;;;;5071359;28;20031;-96
2022/06/03 18:30:28;;;;;;;3.75;2.92;;;20.60;69.30;;;;;;5074998;28;20111;-94
2022/06/03 18:33:00;;;;;;;2.95;2.70;;;20.60;69.60;;;;;;5070883;28;20028;-91
2022/06/03 18:35:35;;;;;;;23.20;17.30;;;20.60;69.90;;;;;;5071481;28;20021;-92
2022/06/03 18:38:46;;;;;;;4.93;3.75;;;20.60;70.40;;;;;;5071038;28;20059;-93
2022/06/03 18:41:49;;;;;;;6.90;2.60;;;20.50;70.40;;;;;;5048657;28;20029;-93
2022/06/03 18:44:23;;;;;;;3.08;2.35;;;20.50;70.60;;;;;;5070524;28;20024;-89
2022/06/03 18:47:01;;;;;;;3.45;2.70;;;20.50;71.80;;;;;;5070081;28;20098;-89
2022/06/03 18:49:49;;;;;;;5.30;4.28;;;20.60;71.50;;;;;;5068463;28;20021;-95
2022/06/03 18:52:26;;;;;;;4.45;3.67;;;20.50;71.70;;;;;;5071815;28;20017;-89
2022/06/03 18:55:02;;;;;;;4.63;2.42;;;20.50;71.70;;;;;;5072077;28;20028;-92
2022/06/03 18:57:45;;;;;;;3.45;2.30;;;20.50;70.90;;;;;;5071605;28;20360;-91
2022/06/03 19:00:29;;;;;;;3.10;2.30;;;20.40;70.70;;;;;;5070932;28;20077;-90
2022/06/03 19:03:17;;;;;;;3.30;2.42;;;20.40;70.80;;;;;;5069447;28;20060;-90
2022/06/03 19:05:47;;;;;;;3.58;3.05;;;20.40;70.00;;;;;;5072262;28;20043;-91
2022/06/03 19:08:41;;;;;;;2.22;2.13;;;20.40;70.90;;;;;;5053271;28;20032;-92
2022/06/03 19:11:41;;;;;;;11.73;5.70;;;20.40;70.00;;;;;;5053407;28;20036;-91
2022/06/03 19:14:29;;;;;;;4.57;2.95;;;20.40;70.30;;;;;;5069062;28;20032;-91
2022/06/03 19:17:32;;;;;;;3.25;2.22;;;20.30;70.90;;;;;;5058164;28;20025;-92
2022/06/03 19:20:32;;;;;;;4.03;2.10;;;20.30;71.10;;;;;;5039979;28;20053;-89
2022/06/03 19:23:15;;;;;;;2.83;2.20;;;20.20;71.60;;;;;;5040480;28;20479;-91
2022/06/03 19:27:24;;;;;;;3.25;2.30;;;20.20;71.60;;;;;;5093428;27;20436;-96
2022/06/03 19:30:09;;;;;;;2.47;2.28;;;20.20;72.50;;;;;;5091504;28;20123;-92
2022/06/03 19:32:36;;;;;;;2.70;2.50;;;20.20;73.00;;;;;;5091778;28;20394;-92
2022/06/03 19:35:03;;;;;;;3.13;2.45;;;20.10;73.20;;;;;;5091599;28;20040;-91
2022/06/03 19:37:48;;;;;;;2.92;2.30;;;20.10;73.30;;;;;;5092563;28;20027;-91
2022/06/03 19:40:17;;;;;;;2.80;2.47;;;20.10;73.20;;;;;;5092592;28;20442;-86
2022/06/03 19:43:15;;;;;;;2.40;2.25;;;20.00;73.50;;;;;;5093466;28;20024;-90
2022/06/03 19:46:01;;;;;;;2.58;2.38;;;20.00;73.60;;;;;;5092800;28;20028;-94
2022/06/03 19:48:50;;;;;;;8.63;2.92;;;20.00;73.70;;;;;;5091060;28;20434;-87
2022/06/03 19:51:48;;;;;;;2.70;2.50;;;20.00;73.70;;;;;;5091044;28;20039;-91
2022/06/03 19:54:48;;;;;;;5.05;4.22;;;19.90;73.20;;;;;;5092612;28;20089;-94
2022/06/03 19:57:23;;;;;;;4.35;2.65;;;19.90;73.30;;;;;;5087672;28;20028;-93
2022/06/03 20:00:17;;;;;;;3.50;3.13;;;19.80;73.30;;;;;;5091829;28;20533;-92
2022/06/03 20:03:12;;;;;;;4.18;3.78;;;19.70;73.50;;;;;;5092886;28;20029;-94
2022/06/03 20:06:07;;;;;;;4.38;2.67;;;19.70;74.00;;;;;;5062830;28;20035;-96
2022/06/03 20:08:45;;;;;;;13.25;2.75;;;19.60;74.60;;;;;;5082596;28;20032;-93
2022/06/03 20:14:35;;;;;;;3.80;2.60;;;19.60;75.30;;;;;;5070078;28;20025;-95
2022/06/03 20:17:17;;;;;;;3.50;2.70;;;19.60;75.70;;;;;;5070214;28;20024;-85
2022/06/03 20:20:00;;;;;;;2.85;2.63;;;19.50;75.90;;;;;;5082217;28;20052;-85
2022/06/03 20:22:39;;;;;;;2.63;2.42;;;19.50;76.00;;;;;;5089460;28;20475;-87
2022/06/03 20:25:30;;;;;;;2.63;2.42;;;19.50;76.10;;;;;;5090230;28;20048;-87
2022/06/03 20:28:03;;;;;;;2.70;2.50;;;19.40;76.40;;;;;;5090650;28;20445;-86
2022/06/03 20:30:31;;;;;;;2.80;2.50;;;19.30;76.80;;;;;;5089454;28;20559;-87
2022/06/03 20:33:07;;;;;;;2.60;2.40;;;19.30;76.90;;;;;;5090672;28;20462;-87
2022/06/03 20:36:09;;;;;;;2.95;2.35;;;19.20;77.00;;;;;;5089644;28;20093;-87
2022/06/03 20:38:53;;;;;;;2.40;2.20;;;19.20;77.00;;;;;;5074049;28;20040;-86
2022/06/03 20:41:32;;;;;;;2.55;2.38;;;19.10;77.00;;;;;;5076891;28;20028;-87
2022/06/03 20:44:26;;;;;;;2.50;2.30;;;19.10;77.00;;;;;;5075692;28;20422;-87
2022/06/03 20:47:05;;;;;;;3.13;2.50;;;19.10;77.10;;;;;;5075466;28;20040;-86
2022/06/03 20:50:11;;;;;;;2.60;2.40;;;19.00;77.10;;;;;;5075711;28;20024;-86
2022/06/03 20:52:50;;;;;;;2.55;2.35;;;19.00;77.10;;;;;;5077136;28;20025;-88
2022/06/03 20:55:28;;;;;;;2.43;2.23;;;19.00;77.30;;;;;;5076766;28;20103;-87
2022/06/03 20:57:55;;;;;;;2.30;2.10;;;19.00;77.50;;;;;;5076749;28;20241;-87
2022/06/03 21:00:21;;;;;;;3.95;2.20;;;18.90;77.80;;;;;;5075613;28;20504;-87
2022/06/03 21:02:48;;;;;;;2.65;2.45;;;18.90;77.80;;;;;;5075531;28;20024;-89
2022/06/03 21:13:41;;;;;;;6.03;2.40;;;18.60;79.10;;;;;;5077291;28;20078;-88